Time;durP1;ratioP1;P1;durP2;ratioP2;P2;SDS_P1;SDS_P2;PMS_P1;PMS_P2;Temp;Humidity;BMP_temperature;BMP_pressure;BME280_temperature;BME280_humidity;BME280_pressure;Samples;Min_cycle;Max_cycle;Signal;HPM_P1;HPM_P2
2023/12/26 00:01:24;;;;;;;;;;;;;;;22.13;42.25;100295.81;5084186;28;19918;-47
2023/12/26 00:03:49;;;;;;;;;;;;;;;22.11;42.38;100306.84;5070685;28;19914;-51
2023/12/26 00:06:18;;;;;;;;;;;;;;;22.10;42.50;100315.19;5025140;28;20359;-49
2023/12/26 00:08:44;;;;;;;;;;;;;;;22.09;42.37;100311.63;5031749;28;19962;-49
2023/12/26 00:11:09;;;;;;;;;;;;;;;22.07;42.36;100302.88;5035948;28;20257;-50
2023/12/26 00:13:35;;;;;;;;;;;;;;;22.05;42.48;100307.66;5017478;28;19913;-50
2023/12/26 00:16:00;;;;;;;;;;;;;;;22.04;42.54;100305.16;5014053;28;19959;-48
2023/12/26 00:18:25;;;;;;;;;;;;;;;22.03;42.57;100306.19;5031975;28;19920;-47
2023/12/26 00:20:51;;;;;;;;;;;;;;;22.00;42.62;100304.72;5022825;28;19922;-49
2023/12/26 00:23:16;;;;;;;;;;;;;;;21.99;42.58;100302.22;5024856;28;20462;-50
2023/12/26 00:25:44;;;;;;;;;;;;;;;21.98;42.24;100308.69;5031060;28;19914;-47
2023/12/26 00:28:09;;;;;;;;;;;;;;;21.96;42.59;100308.88;5029000;28;19974;-50
2023/12/26 00:30:34;;;;;;;;;;;;;;;21.94;42.56;100317.19;5009853;28;19918;-51
2023/12/26 00:32:59;;;;;;;;;;;;;;;21.92;42.57;100311.16;5016693;28;19916;-48
2023/12/26 00:35:25;;;;;;;;;;;;;;;21.91;42.58;100322.19;5030116;28;19999;-49
2023/12/26 00:37:50;;;;;;;;;;;;;;;21.90;42.63;100304.28;5019444;28;19921;-50
2023/12/26 00:40:15;;;;;;;;;;;;;;;21.88;42.66;100306.38;5026339;28;19912;-50
2023/12/26 00:42:42;;;;;;;;;;;;;;;21.87;42.67;100310.09;5039487;28;19983;-49
2023/12/26 00:45:08;;;;;;;;;;;;;;;21.86;42.54;100324.66;5020714;28;20114;-45
2023/12/26 00:47:34;;;;;;;;;;;;;;;21.85;42.77;100309.47;5034590;28;19920;-51
2023/12/26 00:49:59;;;;;;;;;;;;;;;21.85;42.49;100317.59;5040828;28;19917;-49
2023/12/26 00:52:25;;;;;;;;;;;;;;;21.82;42.75;100316.09;5013436;28;19918;-49
2023/12/26 00:54:51;;;;;;;;;;;;;;;21.81;42.74;100327.16;5015907;28;19926;-48
2023/12/26 00:57:16;;;;;;;;;;;;;;;21.79;42.86;100316.53;5032160;28;19983;-50
2023/12/26 00:59:41;;;;;;;;;;;;;;;21.79;42.57;100310.25;5040533;28;19913;-46
2023/12/26 01:02:06;;;;;;;;;;;;;;;21.77;42.49;100313.19;5050510;28;19916;-47
2023/12/26 01:04:32;;;;;;;;;;;;;;;21.76;42.72;100313.38;5041300;28;19925;-49
2023/12/26 01:06:57;;;;;;;;;;;;;;;21.76;42.72;100310.69;5024506;28;19918;-49
2023/12/26 01:09:22;;;;;;;;;;;;;;;21.74;42.83;100312.75;5024309;28;19922;-50
2023/12/26 01:11:48;;;;;;;;;;;;;;;21.71;42.50;100314.84;5022505;28;19926;-46
2023/12/26 01:14:13;;;;;;;;;;;;;;;21.71;42.81;100311.28;5027558;28;19918;-48
2023/12/26 01:16:39;;;;;;;;;;;;;;;21.68;42.79;100323.34;5022239;28;19918;-50
2023/12/26 01:19:04;;;;;;;;;;;;;;;21.67;42.53;100321.69;5050682;28;19992;-47
2023/12/26 01:21:29;;;;;;;;;;;;;;;21.67;42.69;100331.66;5027195;28;19924;-46
2023/12/26 01:23:55;;;;;;;;;;;;;;;21.64;42.81;100315.84;5020359;28;19912;-47
2023/12/26 01:26:22;;;;;;;;;;;;;;;21.64;42.82;100329.34;5066334;28;19922;-47
2023/12/26 01:28:47;;;;;;;;;;;;;;;21.63;42.66;100327.69;5013646;28;19972;-46
2023/12/26 01:31:12;;;;;;;;;;;;;;;21.61;42.99;100316.22;5043379;28;20284;-48
2023/12/26 01:33:37;;;;;;;;;;;;;;;21.58;43.03;100322.88;5039162;28;19918;-47
2023/12/26 01:36:03;;;;;;;;;;;;;;;21.59;42.99;100329.13;5032405;28;19918;-48
2023/12/26 01:38:28;;;;;;;;;;;;;;;21.58;42.92;100327.44;5013345;28;19941;-49
2023/12/26 01:40:53;;;;;;;;;;;;;;;21.57;42.95;100323.06;5011943;28;20446;-49
2023/12/26 01:43:18;;;;;;;;;;;;;;;21.54;42.68;100328.91;5036461;28;20410;-49
2023/12/26 01:45:44;;;;;;;;;;;;;;;21.53;42.90;100325.34;5033418;28;19913;-50
2023/12/26 01:48:09;;;;;;;;;;;;;;;21.52;42.78;100320.13;5072379;28;19941;-46
2023/12/26 01:50:34;;;;;;;;;;;;;;;21.50;42.96;100330.34;5032864;28;19918;-45
2023/12/26 01:52:59;;;;;;;;;;;;;;;21.50;42.73;100335.75;5025307;28;19921;-48
2023/12/26 01:55:25;;;;;;;;;;;;;;;21.49;42.74;100336.75;5009264;28;19914;-47
2023/12/26 01:57:50;;;;;;;;;;;;;;;21.48;42.78;100343.22;5066256;28;20021;-47
2023/12/26 02:00:18;;;;;;;;;;;;;;;21.46;42.74;100354.22;5065882;28;19939;-46
2023/12/26 02:02:43;;;;;;;;;;;;;;;21.44;43.06;100343.59;5068098;28;19921;-49
2023/12/26 02:05:08;;;;;;;;;;;;;;;21.42;42.82;100355.66;5069919;28;19920;-46
2023/12/26 02:07:33;;;;;;;;;;;;;;;21.41;42.80;100370.22;5081439;28;19918;-50
2023/12/26 02:10:00;;;;;;;;;;;;;;;21.40;43.15;100376.66;5008750;28;19914;-47
2023/12/26 02:12:25;;;;;;;;;;;;;;;21.39;43.10;100391.22;5019909;28;19918;-49
2023/12/26 02:14:52;;;;;;;;;;;;;;;21.36;42.91;100389.72;5037989;28;19921;-51
2023/12/26 02:17:19;;;;;;;;;;;;;;;21.36;42.98;100399.72;5016768;28;19913;-46
2023/12/26 02:19:45;;;;;;;;;;;;;;;21.34;43.17;100409.91;5018739;28;20261;-46
2023/12/26 02:22:11;;;;;;;;;;;;;;;21.32;42.94;100404.66;5028390;28;20014;-46
2023/12/26 02:24:36;;;;;;;;;;;;;;;21.31;43.11;100396.72;5040189;28;19949;-47
2023/12/26 02:27:01;;;;;;;;;;;;;;;21.31;43.02;100399.44;5009129;28;19920;-47
2023/12/26 02:29:27;;;;;;;;;;;;;;;21.30;42.91;100406.72;5067343;28;20377;-47
2023/12/26 02:31:52;;;;;;;;;;;;;;;21.28;43.21;100406.09;5019955;28;19918;-44
2023/12/26 02:34:17;;;;;;;;;;;;;;;21.27;43.01;100415.22;5068529;28;19918;-46
2023/12/26 02:36:42;;;;;;;;;;;;;;;21.26;42.94;100415.41;5066451;28;19921;-45
2023/12/26 02:39:11;;;;;;;;;;;;;;;21.25;42.85;100402.94;5064074;28;19914;-46
2023/12/26 02:41:37;;;;;;;;;;;;;;;21.25;43.05;100421.88;5032087;28;19913;-44
2023/12/26 02:44:02;;;;;;;;;;;;;;;21.23;42.89;100433.69;5057357;28;19936;-46
2023/12/26 02:46:27;;;;;;;;;;;;;;;21.22;43.10;100429.31;5029935;28;19918;-47
2023/12/26 02:48:52;;;;;;;;;;;;;;;21.22;43.04;100445.53;5014753;28;19952;-46
2023/12/26 02:51:18;;;;;;;;;;;;;;;21.21;43.07;100432.22;5023512;28;19916;-45
2023/12/26 02:53:44;;;;;;;;;;;;;;;21.20;43.00;100438.69;5032182;28;19919;-46
2023/12/26 02:56:09;;;;;;;;;;;;;;;21.20;43.24;100436.81;5026520;28;20063;-46
2023/12/26 02:58:34;;;;;;;;;;;;;;;21.19;43.06;100437.81;5039022;28;19926;-45
2023/12/26 03:00:59;;;;;;;;;;;;;;;21.19;43.23;100448.63;5026613;28;19937;-47
2023/12/26 03:03:25;;;;;;;;;;;;;;;21.18;43.20;100446.13;5019815;28;20418;-49
2023/12/26 03:05:50;;;;;;;;;;;;;;;21.16;42.97;100450.91;5014164;28;19921;-48
2023/12/26 03:08:15;;;;;;;;;;;;;;;21.15;42.82;100449.22;5027719;28;19912;-48
2023/12/26 03:10:40;;;;;;;;;;;;;;;21.13;42.91;100457.53;5017673;28;19926;-49
2023/12/26 03:13:06;;;;;;;;;;;;;;;21.12;42.95;100458.56;5018481;28;19914;-46
2023/12/26 03:15:31;;;;;;;;;;;;;;;21.11;43.07;100466.84;5037096;28;20039;-49
2023/12/26 03:17:56;;;;;;;;;;;;;;;21.09;42.92;100475.16;5018313;28;19914;-51
2023/12/26 03:20:21;;;;;;;;;;;;;;;21.09;42.86;100490.56;5007753;28;20062;-47
2023/12/26 03:22:47;;;;;;;;;;;;;;;21.07;43.13;100481.78;5026842;28;19916;-50
2023/12/26 03:25:12;;;;;;;;;;;;;;;21.05;43.02;100487.41;5021267;28;19914;-46
2023/12/26 03:27:37;;;;;;;;;;;;;;;21.05;42.70;100478.47;5028674;28;19972;-48
2023/12/26 03:30:02;;;;;;;;;;;;;;;21.02;43.04;100487.78;5027171;28;19917;-46
2023/12/26 03:32:28;;;;;;;;;;;;;;;21.01;43.14;100493.38;5023400;28;19925;-48
2023/12/26 03:34:53;;;;;;;;;;;;;;;20.99;42.95;100492.75;5009046;28;20005;-46
2023/12/26 03:37:18;;;;;;;;;;;;;;;20.97;42.93;100501.88;5016398;28;19921;-48
2023/12/26 03:39:43;;;;;;;;;;;;;;;20.95;42.92;100498.53;5033200;28;19913;-47
2023/12/26 03:42:09;;;;;;;;;;;;;;;20.95;43.04;100490.44;5009624;28;20012;-50
2023/12/26 03:44:34;;;;;;;;;;;;;;;20.94;42.81;100499.56;5039640;28;19967;-50
2023/12/26 03:46:59;;;;;;;;;;;;;;;20.93;42.88;100502.44;5044277;28;19919;-49
2023/12/26 03:49:24;;;;;;;;;;;;;;;20.92;42.71;100506.19;5013069;28;19942;-48
2023/12/26 03:51:50;;;;;;;;;;;;;;;20.90;43.04;100503.69;5015974;28;19918;-49
2023/12/26 03:54:15;;;;;;;;;;;;;;;20.90;42.79;100513.66;5034606;28;19978;-47
2023/12/26 03:56:40;;;;;;;;;;;;;;;20.88;42.77;100515.69;5031532;28;19931;-46
2023/12/26 03:59:06;;;;;;;;;;;;;;;20.86;42.71;100515.91;5022809;28;19918;-47
2023/12/26 04:01:31;;;;;;;;;;;;;;;20.85;42.83;100525.00;5036424;28;19914;-46
2023/12/26 04:03:56;;;;;;;;;;;;;;;20.84;42.71;100523.34;5033032;28;19914;-47
2023/12/26 04:06:22;;;;;;;;;;;;;;;20.84;42.91;100517.09;5011563;28;19945;-50
2023/12/26 04:08:47;;;;;;;;;;;;;;;20.82;42.99;100530.81;5038343;28;20015;-46
2023/12/26 04:11:12;;;;;;;;;;;;;;;20.81;42.86;100531.81;5035785;28;19918;-45
2023/12/26 04:13:38;;;;;;;;;;;;;;;20.79;42.92;100542.00;5016936;28;19918;-46
2023/12/26 04:16:03;;;;;;;;;;;;;;;20.78;43.01;100543.03;5020899;28;20380;-45
2023/12/26 04:18:29;;;;;;;;;;;;;;;20.77;42.98;100535.94;5049524;28;19912;-48
2023/12/26 04:20:54;;;;;;;;;;;;;;;20.77;42.67;100535.09;5031480;28;19914;-49
2023/12/26 04:23:19;;;;;;;;;;;;;;;20.75;42.95;100543.41;5088004;28;20826;-48
2023/12/26 04:25:44;;;;;;;;;;;;;;;20.75;42.66;100551.50;5089013;28;20016;-47
2023/12/26 04:28:10;;;;;;;;;;;;;;;20.74;42.77;100560.66;5021147;28;19921;-47
2023/12/26 04:30:35;;;;;;;;;;;;;;;20.71;42.96;100559.16;5020483;28;20376;-47
2023/12/26 04:33:01;;;;;;;;;;;;;;;20.70;42.82;100573.69;5031716;28;19967;-47
2023/12/26 04:35:26;;;;;;;;;;;;;;;20.69;42.57;100577.44;5015624;28;19917;-47
2023/12/26 04:37:51;;;;;;;;;;;;;;;20.69;42.73;100579.28;5031291;28;19913;-50
2023/12/26 04:40:17;;;;;;;;;;;;;;;20.66;42.94;100580.50;5036605;28;19933;-49
2023/12/26 04:42:43;;;;;;;;;;;;;;;20.65;42.74;100580.69;5026963;28;19956;-49
2023/12/26 04:45:09;;;;;;;;;;;;;;;20.64;42.49;100589.81;5013596;28;19918;-48
2023/12/26 04:47:34;;;;;;;;;;;;;;;20.62;42.36;100592.69;5015722;28;19914;-47
2023/12/26 04:49:59;;;;;;;;;;;;;;;20.61;42.63;100604.53;5058259;28;19912;-49
2023/12/26 04:52:25;;;;;;;;;;;;;;;20.59;42.60;100600.34;5020115;28;20051;-47
2023/12/26 04:54:50;;;;;;;;;;;;;;;20.58;42.41;100607.59;5031780;28;20318;-46
2023/12/26 04:57:15;;;;;;;;;;;;;;;20.57;42.64;100614.03;5029971;28;19921;-49
2023/12/26 04:59:41;;;;;;;;;;;;;;;20.56;42.64;100603.41;5012512;28;19939;-46
2023/12/26 05:02:06;;;;;;;;;;;;;;;20.54;42.38;100614.41;5012039;28;20412;-46
2023/12/26 05:04:31;;;;;;;;;;;;;;;20.52;42.63;100613.78;5037947;28;19921;-49
2023/12/26 05:06:56;;;;;;;;;;;;;;;20.52;42.19;100623.69;5031480;28;19921;-47
2023/12/26 05:09:21;;;;;;;;;;;;;;;20.51;42.45;100622.88;5025250;28;19919;-45
2023/12/26 05:11:47;;;;;;;;;;;;;;;20.49;42.53;100635.75;5024133;28;19943;-46
2023/12/26 05:14:12;;;;;;;;;;;;;;;20.49;42.65;100637.59;5021083;28;19914;-45
2023/12/26 05:16:39;;;;;;;;;;;;;;;20.49;42.72;100648.41;5013922;28;19918;-43
2023/12/26 05:19:05;;;;;;;;;;;;;;;20.47;42.73;100648.53;5025302;28;19912;-44
2023/12/26 05:21:30;;;;;;;;;;;;;;;20.46;42.28;100655.81;5032663;28;19918;-45
2023/12/26 05:23:56;;;;;;;;;;;;;;;20.45;42.34;100659.53;5087992;28;19945;-45
2023/12/26 05:26:21;;;;;;;;;;;;;;;20.44;42.60;100663.28;5035765;28;19925;-47
2023/12/26 05:28:46;;;;;;;;;;;;;;;20.43;42.62;100656.19;5035759;28;19914;-45
2023/12/26 05:31:11;;;;;;;;;;;;;;;20.42;42.45;100668.00;5008897;28;20396;-45
2023/12/26 05:33:36;;;;;;;;;;;;;;;20.41;42.87;100669.03;5020011;28;20364;-45
2023/12/26 05:36:02;;;;;;;;;;;;;;;20.41;42.52;100679.00;5019568;28;19935;-46
2023/12/26 05:38:27;;;;;;;;;;;;;;;20.40;42.68;100664.66;5017665;28;19945;-46
2023/12/26 05:40:52;;;;;;;;;;;;;;;20.39;42.82;100673.78;5025592;28;19933;-45
2023/12/26 05:43:18;;;;;;;;;;;;;;;20.38;42.58;100680.19;5075926;28;20549;-44
2023/12/26 05:45:43;;;;;;;;;;;;;;;20.37;42.70;100689.31;5023636;28;19914;-44
2023/12/26 05:48:09;;;;;;;;;;;;;;;20.36;42.77;100697.63;5030332;28;19913;-44
2023/12/26 05:50:34;;;;;;;;;;;;;;;20.34;42.72;100700.47;5039325;28;19922;-47
2023/12/26 05:52:59;;;;;;;;;;;;;;;20.33;42.59;100709.59;5023756;28;19974;-46
2023/12/26 05:55:25;;;;;;;;;;;;;;;20.32;42.70;100718.75;5019669;28;20065;-46
2023/12/26 05:57:50;;;;;;;;;;;;;;;20.32;42.67;100731.41;5035336;28;19922;-45
2023/12/26 06:00:15;;;;;;;;;;;;;;;20.29;42.71;100729.91;5083349;28;19921;-47
2023/12/26 06:02:41;;;;;;;;;;;;;;;20.28;42.53;100738.19;5056945;28;19973;-47
2023/12/26 06:05:07;;;;;;;;;;;;;;;20.26;42.48;100746.44;5039615;28;20391;-46
2023/12/26 06:07:32;;;;;;;;;;;;;;;20.24;42.98;100751.19;5022594;28;19934;-50
2023/12/26 06:09:57;;;;;;;;;;;;;;;20.25;42.55;100760.13;5012641;28;19926;-45
2023/12/26 06:12:23;;;;;;;;;;;;;;;20.22;42.56;100753.25;5021022;28;19925;-49
2023/12/26 06:14:48;;;;;;;;;;;;;;;20.22;42.74;100766.75;5033220;28;20152;-48
2023/12/26 06:17:13;;;;;;;;;;;;;;;20.21;42.50;100781.25;5030532;28;19914;-47
2023/12/26 06:19:38;;;;;;;;;;;;;;;20.19;42.79;100775.22;5049082;28;19912;-45
2023/12/26 06:22:04;;;;;;;;;;;;;;;20.18;42.84;100778.94;5031329;28;19925;-45
2023/12/26 06:24:29;;;;;;;;;;;;;;;20.17;42.69;100790.72;5012434;28;20006;-45
2023/12/26 06:26:54;;;;;;;;;;;;;;;20.15;42.64;100799.03;5068314;28;20323;-45
2023/12/26 06:29:19;;;;;;;;;;;;;;;20.15;42.83;100799.03;5030143;28;19937;-46
2023/12/26 06:31:44;;;;;;;;;;;;;;;20.15;42.76;100795.47;5042754;28;19921;-49
2023/12/26 06:34:10;;;;;;;;;;;;;;;20.14;42.78;100799.22;5029637;28;19917;-45
2023/12/26 06:36:35;;;;;;;;;;;;;;;20.13;42.51;100805.59;5028418;28;19918;-45
2023/12/26 06:39:01;;;;;;;;;;;;;;;20.12;42.66;100803.94;5083321;28;20350;-46
2023/12/26 06:41:27;;;;;;;;;;;;;;;20.10;42.60;100806.81;5008641;28;19945;-44
2023/12/26 06:43:52;;;;;;;;;;;;;;;20.08;42.95;100813.41;5023176;28;19971;-45
2023/12/26 06:46:18;;;;;;;;;;;;;;;20.07;42.53;100812.56;5082823;28;19920;-48
2023/12/26 06:48:43;;;;;;;;;;;;;;;20.06;42.81;100815.47;5024865;28;19918;-47
2023/12/26 06:51:08;;;;;;;;;;;;;;;20.05;42.57;100819.16;5038351;28;19943;-47
2023/12/26 06:53:34;;;;;;;;;;;;;;;20.03;42.87;100840.94;5077961;28;19941;-46
2023/12/26 06:55:59;;;;;;;;;;;;;;;20.02;42.85;100843.81;5010762;28;20252;-49
2023/12/26 06:58:25;;;;;;;;;;;;;;;20.01;42.86;100842.13;5021721;28;19929;-47
2023/12/26 07:00:50;;;;;;;;;;;;;;;20.01;42.82;100851.06;5031776;28;19914;-49
2023/12/26 07:03:15;;;;;;;;;;;;;;;20.00;42.58;100848.53;5012517;28;19914;-47
2023/12/26 07:05:41;;;;;;;;;;;;;;;19.97;42.74;100847.88;5024556;28;19921;-47
2023/12/26 07:08:06;;;;;;;;;;;;;;;19.99;42.74;100861.19;5043512;28;19916;-46
2023/12/26 07:10:31;;;;;;;;;;;;;;;19.97;43.05;100861.38;5005048;28;19917;-50
2023/12/26 07:12:56;;;;;;;;;;;;;;;19.96;42.95;100859.72;5014665;28;19989;-49
2023/12/26 07:15:21;;;;;;;;;;;;;;;19.96;42.81;100858.84;5038290;28;19913;-49
2023/12/26 07:17:47;;;;;;;;;;;;;;;19.96;42.85;100866.94;5021668;28;19953;-45
2023/12/26 07:20:12;;;;;;;;;;;;;;;19.96;43.13;100866.94;5012723;28;19921;-46
2023/12/26 07:22:37;;;;;;;;;;;;;;;19.95;43.21;100868.78;5021262;28;19922;-49
2023/12/26 07:25:03;;;;;;;;;;;;;;;19.96;42.98;100875.91;5042353;28;19914;-47
2023/12/26 07:27:28;;;;;;;;;;;;;;;19.97;43.12;100882.97;5016526;28;19922;-49
2023/12/26 07:29:53;;;;;;;;;;;;;;;19.97;42.93;100890.22;5048058;28;19913;-47
2023/12/26 07:32:20;;;;;;;;;;;;;;;19.97;43.48;100893.75;5029624;28;19984;-45
2023/12/26 07:34:46;;;;;;;;;;;;;;;19.98;43.45;100900.00;5007239;28;19923;-45
2023/12/26 07:37:11;;;;;;;;;;;;;;;19.97;43.76;100901.84;5032676;28;19912;-48
2023/12/26 07:39:37;;;;;;;;;;;;;;;19.98;43.94;100903.53;5061497;28;20010;-48
2023/12/26 07:42:02;;;;;;;;;;;;;;;20.00;43.76;100911.44;5018180;28;19922;-47
2023/12/26 07:44:28;;;;;;;;;;;;;;;20.01;44.04;100913.16;5054672;28;19937;-47
2023/12/26 07:46:53;;;;;;;;;;;;;;;20.03;43.98;100916.50;5035130;28;19927;-45
2023/12/26 07:49:18;;;;;;;;;;;;;;;20.05;43.71;100905.50;5021331;28;20303;-46
2023/12/26 07:51:45;;;;;;;;;;;;;;;20.07;43.85;100908.91;5021432;28;19926;-45
2023/12/26 07:54:10;;;;;;;;;;;;;;;20.08;43.95;100913.28;5010555;28;19914;-49
2023/12/26 07:56:36;;;;;;;;;;;;;;;20.09;43.99;100921.22;5067058;28;19913;-46
2023/12/26 07:59:01;;;;;;;;;;;;;;;20.10;43.98;100922.88;5061338;28;20416;-45
2023/12/26 08:01:26;;;;;;;;;;;;;;;20.12;43.69;100931.63;5036543;28;20384;-49
2023/12/26 08:03:52;;;;;;;;;;;;;;;20.15;43.87;100935.84;5016636;28;20291;-49
2023/12/26 08:06:17;;;;;;;;;;;;;;;20.18;43.46;100938.22;5012854;28;19929;-46
2023/12/26 08:08:42;;;;;;;;;;;;;;;20.21;43.63;100944.06;5030745;28;19981;-47
2023/12/26 08:11:08;;;;;;;;;;;;;;;20.23;43.56;100944.75;5030345;28;19928;-44
2023/12/26 08:13:33;;;;;;;;;;;;;;;20.26;43.26;100958.91;5011326;28;19916;-48
2023/12/26 08:15:58;;;;;;;;;;;;;;;20.28;43.22;100955.03;5025743;28;19950;-44
2023/12/26 08:18:23;;;;;;;;;;;;;;;20.29;43.19;100964.78;5020920;28;19917;-48
2023/12/26 08:20:49;;;;;;;;;;;;;;;20.32;43.10;100966.31;5002341;28;19920;-49
2023/12/26 08:23:14;;;;;;;;;;;;;;;20.34;42.72;100964.25;5010461;28;19917;-48
2023/12/26 08:25:39;;;;;;;;;;;;;;;20.37;43.09;100972.84;5010198;28;19929;-45
2023/12/26 08:28:04;;;;;;;;;;;;;;;20.40;43.13;100977.06;5010843;28;19913;-48
2023/12/26 08:30:30;;;;;;;;;;;;;;;20.42;43.18;100975.84;5025387;28;19993;-46
2023/12/26 08:32:55;;;;;;;;;;;;;;;20.45;43.05;100988.19;5017741;28;19940;-45
2023/12/26 08:35:20;;;;;;;;;;;;;;;20.46;43.09;100996.09;5007621;28;19917;-49
2023/12/26 08:37:45;;;;;;;;;;;;;;;20.50;42.78;101002.03;5005918;28;19912;-48
2023/12/26 08:40:10;;;;;;;;;;;;;;;20.53;42.83;101003.53;5016319;28;19921;-47
2023/12/26 08:42:36;;;;;;;;;;;;;;;20.56;42.95;101003.16;5008502;28;19918;-49
2023/12/26 08:45:01;;;;;;;;;;;;;;;20.59;42.84;101006.34;5071947;28;20395;-47
2023/12/26 08:47:26;;;;;;;;;;;;;;;20.61;42.52;101009.75;5028727;28;20212;-47
2023/12/26 08:49:52;;;;;;;;;;;;;;;20.63;42.51;101013.09;5012703;28;19928;-46
2023/12/26 08:52:18;;;;;;;;;;;;;;;20.66;42.31;101017.31;5010142;28;20275;-48
2023/12/26 08:54:43;;;;;;;;;;;;;;;20.68;42.54;101015.25;5019739;28;19918;-47
2023/12/26 08:57:08;;;;;;;;;;;;;;;20.69;42.42;101011.56;5005166;28;19926;-47
2023/12/26 08:59:34;;;;;;;;;;;;;;;20.73;42.29;101026.41;5005350;28;20004;-44
2023/12/26 09:01:59;;;;;;;;;;;;;;;20.77;41.82;101025.00;5017737;28;19936;-46
2023/12/26 09:04:26;;;;;;;;;;;;;;;20.80;41.92;101042.72;5017519;28;19914;-46
2023/12/26 09:06:52;;;;;;;;;;;;;;;20.82;42.02;101041.53;5008536;28;19914;-47
2023/12/26 09:09:17;;;;;;;;;;;;;;;20.84;41.92;101052.16;5026807;28;20013;-46
2023/12/26 09:11:42;;;;;;;;;;;;;;;20.87;41.81;101057.22;5033974;28;19918;-45
2023/12/26 09:14:07;;;;;;;;;;;;;;;20.89;41.40;101060.56;5023079;28;19924;-45
2023/12/26 09:16:33;;;;;;;;;;;;;;;20.89;41.45;101074.91;5017933;28;19949;-46
2023/12/26 09:18:58;;;;;;;;;;;;;;;20.91;41.41;101081.00;5023895;28;19925;-47
2023/12/26 09:21:23;;;;;;;;;;;;;;;20.93;41.17;101083.53;5012881;28;19920;-45
2023/12/26 09:23:48;;;;;;;;;;;;;;;20.95;40.92;101098.56;5037557;28;19921;-47
2023/12/26 09:26:16;;;;;;;;;;;;;;;20.98;40.92;101094.63;5009628;28;19994;-47
2023/12/26 09:28:43;;;;;;;;;;;;;;;20.99;40.81;101101.75;5008477;28;19978;-50
2023/12/26 09:31:08;;;;;;;;;;;;;;;21.01;40.90;101105.09;5005883;28;20017;-44
2023/12/26 09:33:33;;;;;;;;;;;;;;;21.03;40.77;101113.88;5014073;28;19955;-47
2023/12/26 09:35:59;;;;;;;;;;;;;;;21.07;40.85;101108.94;5000754;28;19914;-47
2023/12/26 09:38:24;;;;;;;;;;;;;;;21.08;40.61;101121.47;5009353;28;19921;-48
2023/12/26 09:40:49;;;;;;;;;;;;;;;21.09;40.63;101121.28;5042003;28;20066;-46
2023/12/26 09:43:14;;;;;;;;;;;;;;;21.12;40.75;101125.50;5019105;28;19913;-48
2023/12/26 09:45:40;;;;;;;;;;;;;;;21.15;40.31;101130.53;5016715;28;19924;-49
2023/12/26 09:48:05;;;;;;;;;;;;;;;21.17;40.33;101136.63;5016170;28;19918;-48
2023/12/26 09:50:31;;;;;;;;;;;;;;;21.19;40.59;101145.38;5019675;28;19916;-48
2023/12/26 09:53:00;;;;;;;;;;;;;;;21.21;40.13;101146.91;5016746;28;19914;-44
2023/12/26 09:55:26;;;;;;;;;;;;;;;21.24;40.13;101148.41;5070787;28;19999;-44
2023/12/26 09:57:51;;;;;;;;;;;;;;;21.26;40.06;101145.50;5019635;28;19985;-47
2023/12/26 10:00:17;;;;;;;;;;;;;;;21.28;40.25;101154.28;5016855;28;19947;-44
2023/12/26 10:02:42;;;;;;;;;;;;;;;21.29;39.92;101147.88;5009201;28;19924;-46
2023/12/26 10:05:07;;;;;;;;;;;;;;;21.31;39.85;101160.19;5039394;28;19922;-43
2023/12/26 10:07:33;;;;;;;;;;;;;;;21.34;39.84;101159.88;5044657;28;19913;-45
2023/12/26 10:09:58;;;;;;;;;;;;;;;21.37;39.70;101164.09;5016848;28;19923;-44
2023/12/26 10:12:27;;;;;;;;;;;;;;;21.38;39.52;101166.59;5058049;28;19922;-45
2023/12/26 10:14:59;;;;;;;;;;;;;;;21.40;39.52;101178.06;5064205;28;19918;-44
2023/12/26 10:17:25;;;;;;;;;;;;;;;21.43;39.49;101180.44;5015928;28;19917;-44
2023/12/26 10:19:50;;;;;;;;;;;;;;;21.45;39.40;101189.22;5062246;28;19914;-45
2023/12/26 10:22:16;;;;;;;;;;;;;;;21.46;39.33;101174.66;5024012;28;19947;-44
2023/12/26 10:24:42;;;;;;;;;;;;;;;21.49;39.18;101186.13;5023038;28;19913;-44
2023/12/26 10:27:07;;;;;;;;;;;;;;;21.51;38.95;101182.25;5028394;28;20014;-44
2023/12/26 10:29:32;;;;;;;;;;;;;;;21.54;39.02;101186.47;5012929;28;19923;-44
2023/12/26 10:31:59;;;;;;;;;;;;;;;21.55;38.93;101198.97;5068576;28;20042;-44
2023/12/26 10:34:29;;;;;;;;;;;;;;;21.57;38.98;101194.19;5030573;28;19913;-45
2023/12/26 10:36:54;;;;;;;;;;;;;;;21.58;38.84;101202.16;5023034;28;19917;-44
2023/12/26 10:39:20;;;;;;;;;;;;;;;21.60;38.74;101191.97;5031281;28;20062;-44
2023/12/26 10:41:46;;;;;;;;;;;;;;;21.62;38.88;101189.97;5020472;28;19977;-47
2023/12/26 10:44:12;;;;;;;;;;;;;;;21.66;38.54;101201.22;5038052;28;19921;-48
2023/12/26 10:46:39;;;;;;;;;;;;;;;21.68;38.70;101191.09;5061705;28;19921;-48
2023/12/26 10:49:04;;;;;;;;;;;;;;;21.71;38.43;101206.97;5061224;28;19917;-47
2023/12/26 10:51:31;;;;;;;;;;;;;;;21.73;38.29;101214.91;5024884;28;20003;-47
2023/12/26 10:53:56;;;;;;;;;;;;;;;21.74;38.58;101205.75;5063307;28;19925;-45
2023/12/26 10:56:22;;;;;;;;;;;;;;;21.76;38.55;101218.09;5068732;28;19917;-44
2023/12/26 10:58:48;;;;;;;;;;;;;;;21.78;38.55;101220.63;5033708;28;19914;-47
2023/12/26 13:51:42;;;;;;;;;;;;;;;23.22;34.93;101429.28;5005205;28;19924;-44
2023/12/26 13:54:07;;;;;;;;;;;;;;;23.23;35.35;101439.09;5072466;28;19981;-43
2023/12/26 13:56:32;;;;;;;;;;;;;;;23.24;35.08;101431.84;5037077;28;20390;-45
2023/12/26 13:58:58;;;;;;;;;;;;;;;23.27;35.14;101431.44;5011245;28;19950;-46
2023/12/26 14:01:23;;;;;;;;;;;;;;;23.28;35.20;101435.84;5023157;28;19920;-46
2023/12/26 14:03:49;;;;;;;;;;;;;;;23.30;34.93;101431.94;5067681;28;19918;-45
2023/12/26 14:06:18;;;;;;;;;;;;;;;23.35;34.76;101447.66;5040453;28;19949;-45
2023/12/26 14:08:43;;;;;;;;;;;;;;;23.35;34.90;101447.66;5010236;28;20413;-45
2023/12/26 14:11:08;;;;;;;;;;;;;;;23.37;34.72;101442.91;5030602;28;19921;-44
2023/12/26 14:13:34;;;;;;;;;;;;;;;23.39;34.74;101448.97;5022590;28;20448;-44
2023/12/26 14:15:59;;;;;;;;;;;;;;;23.42;34.70;101443.19;5072795;28;20702;-46
2023/12/26 14:18:24;;;;;;;;;;;;;;;23.45;34.69;101448.25;5029161;28;20388;-44
2023/12/26 14:20:49;;;;;;;;;;;;;;;23.45;34.90;101449.09;5036711;28;19921;-43
2023/12/26 14:23:15;;;;;;;;;;;;;;;23.45;34.69;101454.50;5023762;28;19918;-45
2023/12/26 14:25:40;;;;;;;;;;;;;;;23.49;34.54;101454.13;5055850;28;20307;-44
2023/12/26 14:28:05;;;;;;;;;;;;;;;23.49;34.45;101457.69;5029214;28;19962;-44
2023/12/26 14:30:30;;;;;;;;;;;;;;;23.48;34.50;101453.28;5012509;28;19921;-45
2023/12/26 14:32:56;;;;;;;;;;;;;;;23.50;34.74;101453.09;5016961;28;19927;-44
2023/12/26 14:35:21;;;;;;;;;;;;;;;23.51;34.51;101460.22;5035279;28;19952;-44
2023/12/26 14:37:46;;;;;;;;;;;;;;;23.55;34.52;101473.22;5018807;28;19920;-47
2023/12/26 14:40:11;;;;;;;;;;;;;;;23.56;34.40;101468.63;5036408;28;19939;-47
2023/12/26 14:42:37;;;;;;;;;;;;;;;23.54;34.72;101479.69;5036397;28;19914;-49
2023/12/26 14:45:02;;;;;;;;;;;;;;;23.54;34.54;101479.69;5016830;28;20300;-48
2023/12/26 14:47:27;;;;;;;;;;;;;;;23.57;34.57;101489.31;5018554;28;19920;-47
2023/12/26 14:49:52;;;;;;;;;;;;;;;23.59;34.69;101492.72;5024760;28;19927;-49
2023/12/26 14:52:17;;;;;;;;;;;;;;;23.60;34.66;101503.38;5029080;28;19918;-49
2023/12/26 14:54:43;;;;;;;;;;;;;;;23.62;34.50;101509.47;5035913;28;19913;-45
2023/12/26 14:57:08;;;;;;;;;;;;;;;23.62;34.56;101508.63;5034403;28;19937;-48
2023/12/26 14:59:53;;;;;;;;;;;;;;;23.62;34.61;101525.75;5020105;28;20086;-47
2023/12/26 15:02:18;;;;;;;;;;;;;;;23.64;34.34;101545.41;5009089;28;19918;-48
2023/12/26 15:04:43;;;;;;;;;;;;;;;23.64;34.44;101548.13;5072365;28;20014;-48
2023/12/26 15:07:08;;;;;;;;;;;;;;;23.64;34.36;101545.41;5028073;28;19957;-48
2023/12/26 15:09:34;;;;;;;;;;;;;;;23.64;34.55;101544.56;5014276;28;19914;-47
2023/12/26 15:11:59;;;;;;;;;;;;;;;23.63;34.37;101559.16;5026844;28;19943;-50
2023/12/26 15:14:24;;;;;;;;;;;;;;;23.62;34.38;101560.22;5016542;28;19913;-49
2023/12/26 15:16:49;;;;;;;;;;;;;;;23.64;34.68;101561.69;5009802;28;19913;-47